Norwegian Dream — C6LG5 — position and weather

sailwx.info

Track history (hours):
 
Tides and Currents Weather Stations Pressure Air Temp Water Temp Dewpoint Dewpoint Depression Visibility Wind Speed Wind Dir Waves Ship Positions

Norwegian Dream

Operator: Norwegian Cruise Line

Last reported at 2017-Nov-19 10:09 UTC. Time now 2017-Nov-23 00:22 UTC.
Position N 01°27' E 103°52'.

Type: Ship. MMSI: 308272000.

Date/timePositionNaut miles runAvg speedWind from/ knotsBaromVisibWave heightAir tempDewpointWater temp
2017-Nov-19 10:09N 01°27' E 103°52'13 9.1
2017-Nov-19 08:40N 01°21' E 104°04'3 9.8
2017-Nov-19 08:23N 01°19' E 104°06'6 8.7
2017-Nov-19 07:44N 01°15' E 104°01'314.7
2017-Nov-19 07:30N 01°14' E 103°58'715.0
2017-Nov-19 07:01N 01°12' E 103°51'510.0
2017-Nov-19 06:30N 01°15' E 103°48'2 2.3
2017-Nov-19 05:46N 01°16' E 103°49'0 0.0
2017-Nov-19 04:13N 01°16' E 103°49'0 0.0
2017-Nov-19 03:58N 01°16' E 103°49'0 0.0
2017-Nov-19 03:28N 01°16' E 103°49'0 0.0
2017-Nov-19 02:58N 01°16' E 103°49'0 0.0
2017-Nov-19 02:28N 01°16' E 103°49'0 0.0
2017-Nov-19 01:43N 01°16' E 103°49'0 0.0
2017-Nov-19 01:25N 01°16' E 103°49'0 0.0
2017-Nov-18 23:52N 01°16' E 103°49'0 0.2
2017-Nov-18 23:30N 01°16' E 103°49'2 3.8
2017-Nov-18 23:01N 01°15' E 103°47'5 9.2
2017-Nov-18 22:30N 01°11' E 103°50'5 9.1
2017-Nov-18 21:59N 01°08' E 103°46'511.0
2017-Nov-18 21:30N 01°05' E 103°42'510.4
2017-Nov-18 21:01N 01°04' E 103°37'712.7
2017-Nov-18 20:30N 01°08' E 103°31'713.0
2017-Nov-18 19:58N 01°11' E 103°25'613.0
2017-Nov-18 19:28N 01°15' E 103°20'2214.9
2017-Nov-18 18:00N 01°24' E 103°00'19 0.8 050 / 141010.010.8 28.028.030.0
2017-Nov-17 18:00N 01°18' E 103°18'18 5.6 350 / 81010.010.8 27.027.029.0
2017-Nov-17 14:51N 01°12' E 103°35'2 6.0
2017-Nov-17 14:28N 01°12' E 103°37'3 6.5
2017-Nov-17 14:00N 01°11' E 103°40'3 6.6
2017-Nov-17 13:30N 01°09' E 103°42'4 8.0
2017-Nov-17 13:00N 01°10' E 103°46'4 7.7
2017-Nov-17 12:30N 01°13' E 103°48'3 5.8
2017-Nov-17 12:00N 01°16' E 103°49'0 0.0
2017-Nov-17 11:25N 01°16' E 103°49'0 0.0
2017-Nov-17 10:55N 01°16' E 103°49'0 0.0
2017-Nov-17 10:14N 01°16' E 103°49'0 0.0
2017-Nov-17 09:55N 01°16' E 103°49'0 0.0
2017-Nov-17 09:20N 01°16' E 103°49'0 0.0
2017-Nov-17 08:49N 01°16' E 103°49'0 0.0
2017-Nov-17 08:25N 01°16' E 103°49'0 0.0
2017-Nov-17 07:43N 01°16' E 103°49'0 0.0
2017-Nov-17 07:20N 01°16' E 103°49'0 0.0
2017-Nov-17 06:55N 01°16' E 103°49'0 0.0
2017-Nov-17 06:25N 01°16' E 103°49'0 0.0
2017-Nov-17 05:55N 01°16' E 103°49'0 0.0
2017-Nov-17 05:25N 01°16' E 103°49'0 0.0
2017-Nov-17 04:50N 01°16' E 103°49'0 0.0
2017-Nov-17 04:26N 01°16' E 103°49'0 0.0
2017-Nov-17 03:49N 01°16' E 103°49'0 0.0
2017-Nov-17 01:02N 01°16' E 103°49'0 0.0
2017-Nov-17 00:50N 01°16' E 103°49'0 0.0
2017-Nov-17 00:19N 01°16' E 103°49'0 0.0
2017-Nov-16 23:49N 01°16' E 103°49'0 0.0
2017-Nov-16 23:25N 01°16' E 103°49'0 0.0
2017-Nov-16 22:55N 01°16' E 103°49'0 0.0
2017-Nov-16 22:13N 01°16' E 103°49'0 0.0
2017-Nov-16 21:50N 01°16' E 103°49'0 0.0
2017-Nov-16 21:19N 01°16' E 103°49'0 0.0
2017-Nov-16 20:49N 01°16' E 103°49'0 0.0
2017-Nov-16 20:27N 01°16' E 103°49'0 0.0
2017-Nov-16 19:55N 01°16' E 103°49'0 0.0
2017-Nov-16 19:25N 01°16' E 103°49'4 9.0
2017-Nov-16 19:00N 01°12' E 103°48'455.6 360 / 61010.010.8 27.027.029.0
2017-Nov-16 18:55N 01°16' E 103°49'0 0.0
2017-Nov-16 18:19N 01°16' E 103°49'0 0.0
2017-Nov-16 17:55N 01°16' E 103°49'0 0.0
2017-Nov-16 17:25N 01°16' E 103°49'0 0.0
2017-Nov-16 16:43N 01°16' E 103°49'0 0.0
2017-Nov-16 16:27N 01°16' E 103°49'0 0.0
2017-Nov-16 13:20N 01°16' E 103°49'0 0.0
2017-Nov-16 12:50N 01°16' E 103°49'0 0.0
2017-Nov-16 12:26N 01°16' E 103°49'0 0.0
2017-Nov-16 11:55N 01°16' E 103°49'0 0.0
2017-Nov-16 11:26N 01°16' E 103°49'0 0.0
2017-Nov-16 10:55N 01°16' E 103°49'0 0.0
2017-Nov-16 10:25N 01°16' E 103°49'0 0.0
2017-Nov-16 09:49N 01°16' E 103°49'0 0.0
2017-Nov-16 09:26N 01°16' E 103°49'0 0.0
2017-Nov-16 08:55N 01°16' E 103°49'0 0.0
2017-Nov-16 08:19N 01°16' E 103°49'0 0.0
2017-Nov-16 07:55N 01°16' E 103°49'0 0.0
2017-Nov-16 07:25N 01°16' E 103°49'0 0.0
2017-Nov-16 06:55N 01°16' E 103°49'0 0.0
2017-Nov-16 06:26N 01°16' E 103°49'0 0.0
2017-Nov-16 05:55N 01°16' E 103°49'0 0.0
2017-Nov-16 05:13N 01°16' E 103°49'0 0.0
2017-Nov-16 04:55N 01°16' E 103°49'0 0.0
2017-Nov-16 04:26N 01°16' E 103°49'0 0.0
2017-Nov-16 03:57N 01°16' E 103°49'0 0.0
2017-Nov-16 03:25N 01°16' E 103°49'0 0.0
2017-Nov-16 02:55N 01°16' E 103°49'0 0.0
2017-Nov-15 23:49N 01°16' E 103°49'0 0.0
2017-Nov-15 23:25N 01°16' E 103°49'0 0.0
2017-Nov-15 22:55N 01°16' E 103°49'0 0.0
2017-Nov-15 21:37N 01°16' E 103°49'0 0.0
2017-Nov-15 21:21N 01°16' E 103°49'410.7
2017-Nov-15 21:00N 01°12' E 103°48'457.7 010 / 41010.010.8 27.027.029.0
2017-Nov-15 20:55N 01°16' E 103°49'0 0.0
2017-Nov-15 20:25N 01°16' E 103°49'0 0.0
2017-Nov-15 19:19N 01°16' E 103°49'0 0.0
2017-Nov-15 18:49N 01°16' E 103°49'0 0.0
2017-Nov-15 18:27N 01°16' E 103°49'0 0.0
2017-Nov-15 17:43N 01°16' E 103°49'0 0.0
2017-Nov-15 17:27N 01°16' E 103°49'0 0.0
2017-Nov-15 16:49N 01°16' E 103°49'0 0.0
2017-Nov-15 16:28N 01°16' E 103°49'0 0.0
2017-Nov-15 14:55N 01°16' E 103°49'0 0.0
2017-Nov-15 14:28N 01°16' E 103°49'0 0.0
2017-Nov-15 11:43N 01°16' E 103°49'0 0.0
2017-Nov-15 11:27N 01°16' E 103°49'0 0.0
2017-Nov-15 10:58N 01°16' E 103°49'0 0.0
2017-Nov-15 10:09N 01°16' E 103°49'0 0.0
2017-Nov-15 09:49N 01°16' E 103°49'0 0.0
2017-Nov-15 09:01N 01°16' E 103°49'0 0.0
2017-Nov-15 08:32N 01°16' E 103°49'0 0.0
2017-Nov-15 08:02N 01°16' E 103°49'0 0.0
2017-Nov-15 07:56N 01°16' E 103°49'0 0.0
2017-Nov-15 07:02N 01°16' E 103°49'0 0.0
2017-Nov-15 06:40N 01°16' E 103°49'0 0.0
2017-Nov-15 06:13N 01°16' E 103°49'0 0.0
2017-Nov-15 05:40N 01°16' E 103°49'0 0.4
2017-Nov-15 05:30N 01°16' E 103°49'2 4.4
2017-Nov-15 05:00N 01°15' E 103°47'5 9.0
2017-Nov-15 04:30N 01°11' E 103°49'4 8.6
2017-Nov-15 04:00N 01°08' E 103°46'612.1
2017-Nov-15 03:30N 01°04' E 103°42'611.2
2017-Nov-15 02:59N 01°04' E 103°36'612.5
2017-Nov-15 02:29N 01°07' E 103°30'13515.8
2017-Nov-14 18:00N 02°18' E 101°36'30 0.6 020 / 141010.010.8 28.028.030.0
2017-Nov-12 18:00N 02°36' E 101°12'16516.8 010 / 81010.010.8 28.028.030.0
2017-Nov-12 08:13N 01°12' E 103°34'416.6
2017-Nov-12 07:59N 01°12' E 103°38'611.9
2017-Nov-12 07:30N 01°15' E 103°43'610.5
2017-Nov-12 06:59N 01°16' E 103°48'1 1.1
2017-Nov-12 06:10N 01°16' E 103°49'0 0.0
2017-Nov-12 05:40N 01°16' E 103°49'0 0.0
2017-Nov-12 05:22N 01°16' E 103°49'0 0.0
2017-Nov-12 04:52N 01°16' E 103°49'0 0.0
2017-Nov-12 04:28N 01°16' E 103°49'0 0.0
2017-Nov-12 03:52N 01°16' E 103°49'0 0.0
2017-Nov-12 03:16N 01°16' E 103°49'0 0.0
2017-Nov-12 02:52N 01°16' E 103°49'0 0.0
2017-Nov-12 01:52N 01°16' E 103°49'0 0.2
2017-Nov-12 01:30N 01°16' E 103°49'2 3.4
2017-Nov-12 01:00N 01°15' E 103°47'5 9.1
2017-Nov-12 00:30N 01°11' E 103°50'510.0
2017-Nov-11 23:59N 01°08' E 103°46'611.8
2017-Nov-11 23:30N 01°04' E 103°42'4 8.1
2017-Nov-11 22:59N 01°03' E 103°38'4 8.0
2017-Nov-11 22:30N 01°05' E 103°34'4 7.6
2017-Nov-11 21:59N 01°07' E 103°31'4 8.1
2017-Nov-11 21:27N 01°10' E 103°27'31 8.9
2017-Nov-11 18:00N 01°24' E 103°00'13 0.6 330 / 81011.010.8 27.027.029.0
2017-Nov-10 18:00N 01°18' E 103°12'23 7.1 050 / 121011.010.8 26.026.029.0
2017-Nov-10 14:48N 01°12' E 103°34'4 8.7
2017-Nov-10 14:23N 01°11' E 103°38'5 8.8
2017-Nov-10 13:48N 01°09' E 103°42'3 6.6
2017-Nov-10 13:21N 01°09' E 103°45'3 6.5
2017-Nov-10 12:56N 01°10' E 103°47'2 5.5
2017-Nov-10 12:30N 01°12' E 103°48'3 6.2
2017-Nov-10 11:58N 01°16' E 103°49'0 0.1
2017-Nov-10 10:03N 01°16' E 103°49'0 0.0
2017-Nov-10 09:45N 01°16' E 103°49'0 0.0
2017-Nov-10 09:24N 01°16' E 103°49'0 0.0
2017-Nov-10 08:03N 01°16' E 103°49'0 0.0
2017-Nov-10 07:45N 01°16' E 103°49'0 0.0
2017-Nov-10 07:21N 01°16' E 103°49'0 0.0
2017-Nov-10 05:57N 01°16' E 103°49'0 0.0
2017-Nov-10 05:27N 01°16' E 103°49'0 0.0
2017-Nov-10 04:21N 01°16' E 103°49'0 0.0
2017-Nov-10 03:51N 01°16' E 103°49'0 0.5
2017-Nov-10 03:30N 01°16' E 103°49'2 3.7
2017-Nov-10 03:00N 01°15' E 103°47'4 7.7
2017-Nov-10 02:30N 01°12' E 103°49'5 9.1
2017-Nov-10 02:00N 01°08' E 103°46'611.7
2017-Nov-10 01:30N 01°04' E 103°42'5 9.4
2017-Nov-10 01:00N 01°04' E 103°37'6 8.9
2017-Nov-10 00:22N 01°06' E 103°32'3 8.5
2017-Nov-09 23:58N 01°08' E 103°29'47 7.8
2017-Nov-09 18:00N 01°30' E 102°48'   050 / 121010.010.8 27.027.030.0
Track history (hours):
 
Tides and Currents Weather Stations Pressure Air Temp Water Temp Dewpoint Dewpoint Depression Visibility Wind Speed Wind Dir Waves Ship Positions

Norwegian Dream

Operator: Norwegian Cruise Line

Last reported at 2017-Nov-19 10:09 UTC. Time now 2017-Nov-23 00:22 UTC.
Position N 01°27' E 103°52'.

Type: Ship. MMSI: 308272000.

Date/timePositionNaut miles runAvg speedWind from/ knotsBaromVisibWave heightAir tempDewpointWater temp
2017-Nov-19 10:09N 01°27' E 103°52'13 9.1
2017-Nov-19 08:40N 01°21' E 104°04'3 9.8
2017-Nov-19 08:23N 01°19' E 104°06'6 8.7
2017-Nov-19 07:44N 01°15' E 104°01'314.7
2017-Nov-19 07:30N 01°14' E 103°58'715.0
2017-Nov-19 07:01N 01°12' E 103°51'510.0
2017-Nov-19 06:30N 01°15' E 103°48'2 2.3
2017-Nov-19 05:46N 01°16' E 103°49'0 0.0
2017-Nov-19 04:13N 01°16' E 103°49'0 0.0
2017-Nov-19 03:58N 01°16' E 103°49'0 0.0
2017-Nov-19 03:28N 01°16' E 103°49'0 0.0
2017-Nov-19 02:58N 01°16' E 103°49'0 0.0
2017-Nov-19 02:28N 01°16' E 103°49'0 0.0
2017-Nov-19 01:43N 01°16' E 103°49'0 0.0
2017-Nov-19 01:25N 01°16' E 103°49'0 0.0
2017-Nov-18 23:52N 01°16' E 103°49'0 0.2
2017-Nov-18 23:30N 01°16' E 103°49'2 3.8
2017-Nov-18 23:01N 01°15' E 103°47'5 9.2
2017-Nov-18 22:30N 01°11' E 103°50'5 9.1
2017-Nov-18 21:59N 01°08' E 103°46'511.0
2017-Nov-18 21:30N 01°05' E 103°42'510.4
2017-Nov-18 21:01N 01°04' E 103°37'712.7
2017-Nov-18 20:30N 01°08' E 103°31'713.0
2017-Nov-18 19:58N 01°11' E 103°25'613.0
2017-Nov-18 19:28N 01°15' E 103°20'2214.9
2017-Nov-18 18:00N 01°24' E 103°00'19 0.8 050 / 141010.010.8 28.028.030.0
2017-Nov-17 18:00N 01°18' E 103°18'18 5.6 350 / 81010.010.8 27.027.029.0
2017-Nov-17 14:51N 01°12' E 103°35'2 6.0
2017-Nov-17 14:28N 01°12' E 103°37'3 6.5
2017-Nov-17 14:00N 01°11' E 103°40'3 6.6
2017-Nov-17 13:30N 01°09' E 103°42'4 8.0
2017-Nov-17 13:00N 01°10' E 103°46'4 7.7
2017-Nov-17 12:30N 01°13' E 103°48'3 5.8
2017-Nov-17 12:00N 01°16' E 103°49'0 0.0
2017-Nov-17 11:25N 01°16' E 103°49'0 0.0
2017-Nov-17 10:55N 01°16' E 103°49'0 0.0
2017-Nov-17 10:14N 01°16' E 103°49'0 0.0
2017-Nov-17 09:55N 01°16' E 103°49'0 0.0
2017-Nov-17 09:20N 01°16' E 103°49'0 0.0
2017-Nov-17 08:49N 01°16' E 103°49'0 0.0
2017-Nov-17 08:25N 01°16' E 103°49'0 0.0
2017-Nov-17 07:43N 01°16' E 103°49'0 0.0
2017-Nov-17 07:20N 01°16' E 103°49'0 0.0
2017-Nov-17 06:55N 01°16' E 103°49'0 0.0
2017-Nov-17 06:25N 01°16' E 103°49'0 0.0
2017-Nov-17 05:55N 01°16' E 103°49'0 0.0
2017-Nov-17 05:25N 01°16' E 103°49'0 0.0
2017-Nov-17 04:50N 01°16' E 103°49'0 0.0
2017-Nov-17 04:26N 01°16' E 103°49'0 0.0
2017-Nov-17 03:49N 01°16' E 103°49'0 0.0
2017-Nov-17 01:02N 01°16' E 103°49'0 0.0
2017-Nov-17 00:50N 01°16' E 103°49'0 0.0
2017-Nov-17 00:19N 01°16' E 103°49'0 0.0
2017-Nov-16 23:49N 01°16' E 103°49'0 0.0
2017-Nov-16 23:25N 01°16' E 103°49'0 0.0
2017-Nov-16 22:55N 01°16' E 103°49'0 0.0
2017-Nov-16 22:13N 01°16' E 103°49'0 0.0
2017-Nov-16 21:50N 01°16' E 103°49'0 0.0
2017-Nov-16 21:19N 01°16' E 103°49'0 0.0
2017-Nov-16 20:49N 01°16' E 103°49'0 0.0
2017-Nov-16 20:27N 01°16' E 103°49'0 0.0
2017-Nov-16 19:55N 01°16' E 103°49'0 0.0
2017-Nov-16 19:25N 01°16' E 103°49'4 9.0
2017-Nov-16 19:00N 01°12' E 103°48'455.6 360 / 61010.010.8 27.027.029.0
2017-Nov-16 18:55N 01°16' E 103°49'0 0.0
2017-Nov-16 18:19N 01°16' E 103°49'0 0.0
2017-Nov-16 17:55N 01°16' E 103°49'0 0.0
2017-Nov-16 17:25N 01°16' E 103°49'0 0.0
2017-Nov-16 16:43N 01°16' E 103°49'0 0.0
2017-Nov-16 16:27N 01°16' E 103°49'0 0.0
2017-Nov-16 13:20N 01°16' E 103°49'0 0.0
2017-Nov-16 12:50N 01°16' E 103°49'0 0.0
2017-Nov-16 12:26N 01°16' E 103°49'0 0.0
2017-Nov-16 11:55N 01°16' E 103°49'0 0.0
2017-Nov-16 11:26N 01°16' E 103°49'0 0.0
2017-Nov-16 10:55N 01°16' E 103°49'0 0.0
2017-Nov-16 10:25N 01°16' E 103°49'0 0.0
2017-Nov-16 09:49N 01°16' E 103°49'0 0.0
2017-Nov-16 09:26N 01°16' E 103°49'0 0.0
2017-Nov-16 08:55N 01°16' E 103°49'0 0.0
2017-Nov-16 08:19N 01°16' E 103°49'0 0.0
2017-Nov-16 07:55N 01°16' E 103°49'0 0.0
2017-Nov-16 07:25N 01°16' E 103°49'0 0.0
2017-Nov-16 06:55N 01°16' E 103°49'0 0.0
2017-Nov-16 06:26N 01°16' E 103°49'0 0.0
2017-Nov-16 05:55N 01°16' E 103°49'0 0.0
2017-Nov-16 05:13N 01°16' E 103°49'0 0.0
2017-Nov-16 04:55N 01°16' E 103°49'0 0.0
2017-Nov-16 04:26N 01°16' E 103°49'0 0.0
2017-Nov-16 03:57N 01°16' E 103°49'0 0.0
2017-Nov-16 03:25N 01°16' E 103°49'0 0.0
2017-Nov-16 02:55N 01°16' E 103°49'0 0.0
2017-Nov-15 23:49N 01°16' E 103°49'0 0.0
2017-Nov-15 23:25N 01°16' E 103°49'0 0.0
2017-Nov-15 22:55N 01°16' E 103°49'0 0.0
2017-Nov-15 21:37N 01°16' E 103°49'0 0.0
2017-Nov-15 21:21N 01°16' E 103°49'410.7
2017-Nov-15 21:00N 01°12' E 103°48'457.7 010 / 41010.010.8 27.027.029.0
2017-Nov-15 20:55N 01°16' E 103°49'0 0.0
2017-Nov-15 20:25N 01°16' E 103°49'0 0.0
2017-Nov-15 19:19N 01°16' E 103°49'0 0.0
2017-Nov-15 18:49N 01°16' E 103°49'0 0.0
2017-Nov-15 18:27N 01°16' E 103°49'0 0.0
2017-Nov-15 17:43N 01°16' E 103°49'0 0.0
2017-Nov-15 17:27N 01°16' E 103°49'0 0.0
2017-Nov-15 16:49N 01°16' E 103°49'0 0.0
2017-Nov-15 16:28N 01°16' E 103°49'0 0.0
2017-Nov-15 14:55N 01°16' E 103°49'0 0.0
2017-Nov-15 14:28N 01°16' E 103°49'0 0.0
2017-Nov-15 11:43N 01°16' E 103°49'0 0.0
2017-Nov-15 11:27N 01°16' E 103°49'0 0.0
2017-Nov-15 10:58N 01°16' E 103°49'0 0.0
2017-Nov-15 10:09N 01°16' E 103°49'0 0.0
2017-Nov-15 09:49N 01°16' E 103°49'0 0.0
2017-Nov-15 09:01N 01°16' E 103°49'0 0.0
2017-Nov-15 08:32N 01°16' E 103°49'0 0.0
2017-Nov-15 08:02N 01°16' E 103°49'0 0.0
2017-Nov-15 07:56N 01°16' E 103°49'0 0.0
2017-Nov-15 07:02N 01°16' E 103°49'0 0.0
2017-Nov-15 06:40N 01°16' E 103°49'0 0.0
2017-Nov-15 06:13N 01°16' E 103°49'0 0.0
2017-Nov-15 05:40N 01°16' E 103°49'0 0.4
2017-Nov-15 05:30N 01°16' E 103°49'2 4.4
2017-Nov-15 05:00N 01°15' E 103°47'5 9.0
2017-Nov-15 04:30N 01°11' E 103°49'4 8.6
2017-Nov-15 04:00N 01°08' E 103°46'612.1
2017-Nov-15 03:30N 01°04' E 103°42'611.2
2017-Nov-15 02:59N 01°04' E 103°36'612.5
2017-Nov-15 02:29N 01°07' E 103°30'13515.8
2017-Nov-14 18:00N 02°18' E 101°36'30 0.6 020 / 141010.010.8 28.028.030.0
2017-Nov-12 18:00N 02°36' E 101°12'16516.8 010 / 81010.010.8 28.028.030.0
2017-Nov-12 08:13N 01°12' E 103°34'416.6
2017-Nov-12 07:59N 01°12' E 103°38'611.9
2017-Nov-12 07:30N 01°15' E 103°43'610.5
2017-Nov-12 06:59N 01°16' E 103°48'1 1.1
2017-Nov-12 06:10N 01°16' E 103°49'0 0.0
2017-Nov-12 05:40N 01°16' E 103°49'0 0.0
2017-Nov-12 05:22N 01°16' E 103°49'0 0.0
2017-Nov-12 04:52N 01°16' E 103°49'0 0.0
2017-Nov-12 04:28N 01°16' E 103°49'0 0.0
2017-Nov-12 03:52N 01°16' E 103°49'0 0.0
2017-Nov-12 03:16N 01°16' E 103°49'0 0.0
2017-Nov-12 02:52N 01°16' E 103°49'0 0.0
2017-Nov-12 01:52N 01°16' E 103°49'0 0.2
2017-Nov-12 01:30N 01°16' E 103°49'2 3.4
2017-Nov-12 01:00N 01°15' E 103°47'5 9.1
2017-Nov-12 00:30N 01°11' E 103°50'510.0
2017-Nov-11 23:59N 01°08' E 103°46'611.8
2017-Nov-11 23:30N 01°04' E 103°42'4 8.1
2017-Nov-11 22:59N 01°03' E 103°38'4 8.0
2017-Nov-11 22:30N 01°05' E 103°34'4 7.6
2017-Nov-11 21:59N 01°07' E 103°31'4 8.1
2017-Nov-11 21:27N 01°10' E 103°27'31 8.9
2017-Nov-11 18:00N 01°24' E 103°00'13 0.6 330 / 81011.010.8 27.027.029.0
2017-Nov-10 18:00N 01°18' E 103°12'23 7.1 050 / 121011.010.8 26.026.029.0
2017-Nov-10 14:48N 01°12' E 103°34'4 8.7
2017-Nov-10 14:23N 01°11' E 103°38'5 8.8
2017-Nov-10 13:48N 01°09' E 103°42'3 6.6
2017-Nov-10 13:21N 01°09' E 103°45'3 6.5
2017-Nov-10 12:56N 01°10' E 103°47'2 5.5
2017-Nov-10 12:30N 01°12' E 103°48'3 6.2
2017-Nov-10 11:58N 01°16' E 103°49'0 0.1
2017-Nov-10 10:03N 01°16' E 103°49'0 0.0
2017-Nov-10 09:45N 01°16' E 103°49'0 0.0
2017-Nov-10 09:24N 01°16' E 103°49'0 0.0
2017-Nov-10 08:03N 01°16' E 103°49'0 0.0
2017-Nov-10 07:45N 01°16' E 103°49'0 0.0
2017-Nov-10 07:21N 01°16' E 103°49'0 0.0
2017-Nov-10 05:57N 01°16' E 103°49'0 0.0
2017-Nov-10 05:27N 01°16' E 103°49'0 0.0
2017-Nov-10 04:21N 01°16' E 103°49'0 0.0
2017-Nov-10 03:51N 01°16' E 103°49'0 0.5
2017-Nov-10 03:30N 01°16' E 103°49'2 3.7
2017-Nov-10 03:00N 01°15' E 103°47'4 7.7
2017-Nov-10 02:30N 01°12' E 103°49'5 9.1
2017-Nov-10 02:00N 01°08' E 103°46'611.7
2017-Nov-10 01:30N 01°04' E 103°42'5 9.4
2017-Nov-10 01:00N 01°04' E 103°37'6 8.9
2017-Nov-10 00:22N 01°06' E 103°32'3 8.5
2017-Nov-09 23:58N 01°08' E 103°29'47 7.8
2017-Nov-09 18:00N 01°30' E 102°48'   050 / 121010.010.8 27.027.030.0

Dump ship's entire track history